Time;durP1;ratioP1;P1;durP2;ratioP2;P2;SDS_P1;SDS_P2;PMS_P1;PMS_P2;Temp;Humidity;BMP_temperature;BMP_pressure;BME280_temperature;BME280_humidity;BME280_pressure;Samples;Min_cycle;Max_cycle;Signal;HPM_P1;HPM_P2
2022/05/12 00:00:35;;;;;;;4.47;4.18;;;18.20;99.90;;;;;;5013780;28;20207;-85
2022/05/12 00:03:07;;;;;;;4.50;3.95;;;18.10;99.90;;;;;;5013605;28;20219;-85
2022/05/12 00:05:36;;;;;;;4.50;4.10;;;18.00;99.90;;;;;;5013567;28;20295;-85
2022/05/12 00:08:05;;;;;;;5.63;4.35;;;18.00;99.90;;;;;;5013552;28;20245;-85
2022/05/12 00:10:34;;;;;;;4.30;3.88;;;18.00;99.90;;;;;;5013464;28;20235;-85
2022/05/12 00:13:03;;;;;;;4.20;3.80;;;18.00;99.90;;;;;;5013763;28;20286;-85
2022/05/12 00:15:33;;;;;;;4.95;4.45;;;18.00;99.90;;;;;;5013785;28;20241;-85
2022/05/12 00:18:04;;;;;;;4.50;4.10;;;18.00;99.90;;;;;;5013217;28;20231;-85
2022/05/12 00:20:36;;;;;;;3.97;3.65;;;18.00;99.90;;;;;;5013190;28;20275;-85
2022/05/12 00:23:10;;;;;;;4.00;3.70;;;18.00;99.90;;;;;;5013060;28;20250;-85
2022/05/12 00:25:38;;;;;;;4.10;3.72;;;18.00;99.90;;;;;;5013147;28;20311;-85
2022/05/12 00:28:08;;;;;;;4.47;4.07;;;18.00;99.90;;;;;;5013378;28;20292;-85
2022/05/12 00:30:36;;;;;;;4.75;4.03;;;18.00;99.90;;;;;;5013269;28;20226;-85
2022/05/12 00:33:06;;;;;;;3.65;3.35;;;18.00;99.90;;;;;;5013455;28;20314;-85
2022/05/12 00:35:42;;;;;;;4.68;4.07;;;18.00;99.90;;;;;;5013247;28;20294;-85
2022/05/12 00:38:11;;;;;;;4.55;3.78;;;18.00;99.90;;;;;;5013230;28;20242;-85
2022/05/12 00:40:42;;;;;;;5.22;4.72;;;17.90;99.90;;;;;;5012993;28;20207;-85
2022/05/12 00:43:37;;;;;;;5.45;4.55;;;17.90;99.90;;;;;;5013473;28;20231;-85
2022/05/12 00:46:07;;;;;;;7.18;4.32;;;17.90;99.90;;;;;;5013367;28;20210;-85
2022/05/12 00:48:36;;;;;;;8.60;5.10;;;17.90;99.90;;;;;;5012714;28;20217;-85
2022/05/12 00:51:05;;;;;;;4.40;4.00;;;17.90;99.90;;;;;;5012684;28;20207;-85
2022/05/12 00:53:36;;;;;;;5.22;4.75;;;17.90;99.90;;;;;;5013191;28;20314;-85
2022/05/12 00:56:06;;;;;;;5.22;4.72;;;17.80;99.90;;;;;;5013256;28;20203;-85
2022/05/12 00:58:36;;;;;;;11.52;4.93;;;17.80;99.90;;;;;;5013054;28;20226;-85
2022/05/12 01:01:08;;;;;;;4.75;4.32;;;17.70;99.90;;;;;;5012647;28;20299;-85
2022/05/12 01:03:40;;;;;;;5.38;4.88;;;17.70;99.90;;;;;;5012789;28;20234;-85
2022/05/12 01:06:09;;;;;;;5.30;4.90;;;17.70;99.90;;;;;;5012986;28;20207;-85
2022/05/12 01:08:37;;;;;;;5.75;5.15;;;17.70;99.90;;;;;;5012884;28;20283;-85
2022/05/12 01:11:11;;;;;;;5.70;4.80;;;17.60;99.90;;;;;;5013127;28;20295;-85
2022/05/12 01:13:42;;;;;;;5.07;4.65;;;17.60;99.90;;;;;;5012450;28;20318;-84
2022/05/12 01:16:10;;;;;;;5.07;4.53;;;17.60;99.90;;;;;;5012867;28;20265;-85
2022/05/12 01:18:40;;;;;;;5.05;4.55;;;17.60;99.90;;;;;;5012986;28;20206;-85
2022/05/12 01:21:10;;;;;;;4.60;4.20;;;17.50;99.90;;;;;;5012863;28;20288;-85
2022/05/12 01:23:42;;;;;;;6.20;5.63;;;17.50;99.90;;;;;;5012415;28;20246;-85
2022/05/12 01:26:14;;;;;;;5.68;5.18;;;17.50;99.90;;;;;;5012664;28;20214;-85
2022/05/12 01:28:42;;;;;;;5.18;4.68;;;17.40;99.90;;;;;;5013001;28;20250;-85
2022/05/12 01:31:15;;;;;;;8.80;5.40;;;17.50;99.90;;;;;;5012362;28;20214;-85
2022/05/12 01:33:44;;;;;;;5.93;5.32;;;17.50;99.90;;;;;;5012654;28;20227;-85
2022/05/12 01:36:12;;;;;;;4.75;4.35;;;17.50;99.90;;;;;;5012846;28;20257;-85
2022/05/12 01:38:42;;;;;;;5.15;4.75;;;17.50;99.90;;;;;;5012528;28;20307;-85
2022/05/12 01:41:10;;;;;;;5.32;4.82;;;17.40;99.90;;;;;;5013013;28;20254;-85
2022/05/12 01:43:39;;;;;;;4.53;4.22;;;17.40;99.90;;;;;;5016000;28;20235;-85
2022/05/12 01:46:07;;;;;;;4.85;4.47;;;17.40;99.90;;;;;;5016330;28;20412;-85
2022/05/12 01:48:36;;;;;;;6.07;4.82;;;17.30;99.90;;;;;;5015939;28;20211;-85
2022/05/12 01:51:05;;;;;;;4.80;4.45;;;17.30;99.90;;;;;;5015802;28;20275;-85
2022/05/12 01:53:34;;;;;;;4.63;4.22;;;17.30;99.90;;;;;;5015712;28;20250;-85
2022/05/12 01:56:05;;;;;;;6.82;5.28;;;17.20;99.90;;;;;;5016065;28;20276;-85
2022/05/12 01:58:34;;;;;;;6.65;4.78;;;17.20;99.90;;;;;;5016438;28;20290;-85
2022/05/12 02:01:02;;;;;;;4.88;4.45;;;17.20;99.90;;;;;;5016027;28;20290;-85
2022/05/12 02:03:31;;;;;;;5.13;4.50;;;17.10;99.90;;;;;;5015913;28;20229;-85
2022/05/12 02:06:02;;;;;;;5.47;4.88;;;17.10;99.90;;;;;;5015989;28;20259;-85
2022/05/12 02:08:30;;;;;;;4.78;4.38;;;17.10;99.90;;;;;;5016133;28;20222;-85
2022/05/12 02:10:58;;;;;;;5.40;4.90;;;17.00;99.90;;;;;;5015968;28;20326;-85
2022/05/12 02:13:28;;;;;;;6.82;5.45;;;17.00;99.90;;;;;;5015683;28;20270;-85
2022/05/12 02:15:58;;;;;;;4.95;4.38;;;17.00;99.90;;;;;;5015892;28;20231;-85
2022/05/12 02:18:28;;;;;;;4.20;3.90;;;17.00;99.90;;;;;;5015704;28;20211;-85
2022/05/12 02:20:57;;;;;;;5.22;4.82;;;16.90;99.90;;;;;;5015395;28;20202;-85
2022/05/12 02:23:26;;;;;;;4.72;4.35;;;16.90;99.90;;;;;;5015373;28;20293;-85
2022/05/12 02:25:54;;;;;;;5.03;4.53;;;16.90;99.90;;;;;;5015203;28;20286;-86
2022/05/12 02:28:22;;;;;;;6.30;4.55;;;16.90;99.90;;;;;;5015768;28;20290;-86
2022/05/12 02:30:52;;;;;;;4.63;4.22;;;16.80;99.90;;;;;;5015537;28;20235;-85
2022/05/12 02:33:21;;;;;;;5.05;4.03;;;16.80;99.90;;;;;;5015410;28;20246;-86
2022/05/12 02:35:50;;;;;;;6.57;5.35;;;16.80;99.90;;;;;;5015348;28;20246;-86
2022/05/12 02:38:18;;;;;;;4.47;4.10;;;16.80;99.90;;;;;;5015146;28;20273;-86
2022/05/12 02:40:47;;;;;;;6.22;4.68;;;16.70;99.90;;;;;;5015164;28;20234;-86
2022/05/12 02:43:24;;;;;;;5.38;4.82;;;16.70;99.90;;;;;;5015407;28;20250;-86
2022/05/12 02:45:56;;;;;;;6.05;4.35;;;16.70;99.90;;;;;;5014916;28;20226;-86
2022/05/12 02:48:29;;;;;;;4.45;4.10;;;16.70;99.90;;;;;;5015089;28;20207;-86
2022/05/12 02:50:58;;;;;;;4.28;3.88;;;16.70;99.90;;;;;;5014369;28;20265;-86
2022/05/12 02:53:28;;;;;;;9.38;4.43;;;16.70;99.90;;;;;;5014567;28;20311;-86
2022/05/12 02:55:59;;;;;;;4.28;3.92;;;16.70;99.90;;;;;;5015222;28;20203;-86
2022/05/12 02:58:28;;;;;;;4.53;3.63;;;16.70;99.90;;;;;;5015157;28;20263;-86
2022/05/12 03:00:58;;;;;;;4.10;3.80;;;16.70;99.90;;;;;;5015056;28;20241;-86
2022/05/12 03:03:27;;;;;;;4.30;3.92;;;16.70;99.90;;;;;;5014988;28;20241;-86
2022/05/12 03:05:56;;;;;;;4.97;4.20;;;16.80;99.90;;;;;;5014298;28;20314;-86
2022/05/12 03:08:25;;;;;;;4.53;4.13;;;16.70;99.90;;;;;;5014800;28;20211;-86
2022/05/12 03:10:54;;;;;;;4.75;4.35;;;16.70;99.90;;;;;;5014609;28;20294;-86
2022/05/12 03:13:23;;;;;;;3.78;3.45;;;16.70;99.90;;;;;;5014794;28;20219;-86
2022/05/12 03:15:52;;;;;;;6.07;4.13;;;16.70;99.90;;;;;;5014793;28;20249;-86
2022/05/12 03:18:23;;;;;;;4.25;3.90;;;16.60;99.90;;;;;;5014737;28;20210;-86
2022/05/12 03:20:51;;;;;;;4.20;3.90;;;16.60;99.90;;;;;;5014405;28;20302;-86
2022/05/12 03:23:24;;;;;;;6.97;4.72;;;16.60;99.90;;;;;;5014780;28;20238;-86
2022/05/12 03:25:53;;;;;;;4.47;4.13;;;16.50;99.90;;;;;;5013891;28;20251;-86
2022/05/12 03:28:22;;;;;;;6.20;4.40;;;16.50;99.90;;;;;;5014795;28;20270;-86
2022/05/12 03:30:50;;;;;;;5.90;5.00;;;16.60;99.90;;;;;;5014166;28;20456;-85
2022/05/12 03:33:19;;;;;;;3.78;3.38;;;16.50;99.90;;;;;;5014151;28;20227;-86
2022/05/12 03:35:50;;;;;;;4.82;3.78;;;16.50;99.90;;;;;;5014361;28;20310;-86
2022/05/12 03:38:19;;;;;;;5.80;4.38;;;16.60;99.90;;;;;;5014094;28;20214;-86
2022/05/12 03:40:48;;;;;;;4.20;3.90;;;16.50;99.90;;;;;;5013875;28;20280;-85
2022/05/12 03:44:46;;;;;;;4.57;3.88;;;16.60;99.90;;;;;;5014083;28;20250;-85
2022/05/12 03:46:05;;;;;;;5.28;4.40;;;16.60;99.90;;;;;;5013676;28;20318;-86
2022/05/12 03:48:36;;;;;;;4.20;3.90;;;16.70;99.90;;;;;;5014138;28;20283;-86
2022/05/12 03:51:08;;;;;;;4.85;4.35;;;16.60;99.90;;;;;;5013395;28;20231;-86
2022/05/12 03:53:36;;;;;;;3.63;3.38;;;16.70;99.90;;;;;;5013825;28;20251;-86
2022/05/12 03:56:06;;;;;;;4.45;4.05;;;16.70;99.90;;;;;;5013507;28;20234;-86
2022/05/12 03:58:35;;;;;;;4.75;4.20;;;16.70;99.90;;;;;;5013776;28;20231;-85
2022/05/12 04:01:06;;;;;;;5.05;4.05;;;16.80;99.90;;;;;;5013917;28;20211;-86
2022/05/12 04:03:35;;;;;;;6.40;3.83;;;16.80;99.90;;;;;;5013344;28;20232;-86
2022/05/12 04:06:07;;;;;;;4.43;4.07;;;16.70;99.90;;;;;;5013449;28;20281;-86
2022/05/12 04:08:38;;;;;;;4.63;4.22;;;16.80;99.90;;;;;;5013703;28;20262;-86
2022/05/12 04:11:08;;;;;;;6.47;4.10;;;16.80;99.90;;;;;;5013064;28;20238;-86
2022/05/12 04:13:38;;;;;;;4.35;3.95;;;16.90;99.90;;;;;;5013371;28;20322;-86
2022/05/12 04:16:06;;;;;;;4.00;3.70;;;16.90;99.90;;;;;;5013897;28;20241;-85
2022/05/12 04:18:35;;;;;;;5.03;4.53;;;16.90;99.90;;;;;;5013354;28;20273;-86
2022/05/12 04:21:03;;;;;;;6.40;4.75;;;17.00;99.90;;;;;;5012881;28;20203;-86
2022/05/12 04:23:33;;;;;;;3.67;3.33;;;17.10;99.90;;;;;;5013309;28;20266;-85
2022/05/12 04:26:02;;;;;;;4.47;4.07;;;17.10;99.90;;;;;;5013020;28;20227;-86
2022/05/12 04:28:31;;;;;;;3.78;3.47;;;17.20;99.90;;;;;;5013559;28;20207;-86
2022/05/12 04:30:59;;;;;;;5.72;3.70;;;17.30;99.90;;;;;;5013054;28;20206;-86
2022/05/12 04:36:13;;;;;;;8.20;3.78;;;17.50;99.90;;;;;;5013096;28;20238;-86
2022/05/12 04:38:43;;;;;;;6.05;4.50;;;17.70;99.90;;;;;;5013037;28;20273;-86
2022/05/12 04:41:12;;;;;;;5.55;4.40;;;17.80;99.90;;;;;;5013122;28;20207;-86
2022/05/12 04:43:41;;;;;;;4.07;3.78;;;17.80;99.90;;;;;;5012841;28;20247;-86
2022/05/12 04:46:09;;;;;;;4.38;3.88;;;18.00;99.90;;;;;;5012839;28;20223;-86
2022/05/12 04:48:39;;;;;;;4.32;3.92;;;18.00;99.90;;;;;;5012893;28;20209;-86
2022/05/12 04:51:08;;;;;;;4.10;3.75;;;18.10;99.90;;;;;;5012520;28;20297;-85
2022/05/12 04:53:36;;;;;;;4.45;4.03;;;18.20;99.90;;;;;;5012695;28;20315;-85
2022/05/12 04:56:08;;;;;;;3.90;3.53;;;18.20;99.90;;;;;;5012959;28;20199;-86
2022/05/12 04:58:37;;;;;;;4.32;3.95;;;18.20;99.90;;;;;;5013226;28;20265;-86
2022/05/12 05:01:05;;;;;;;6.35;4.82;;;18.20;99.90;;;;;;5012961;28;20230;-85
2022/05/12 05:03:34;;;;;;;7.18;4.15;;;18.20;99.90;;;;;;5012997;28;20227;-86
2022/05/12 05:06:03;;;;;;;6.70;4.70;;;18.20;99.90;;;;;;5012268;28;20219;-86
2022/05/12 05:08:31;;;;;;;5.88;4.15;;;18.20;99.90;;;;;;5013048;28;20298;-85
2022/05/12 05:10:59;;;;;;;6.15;4.75;;;18.20;99.90;;;;;;5012752;28;20206;-86
2022/05/12 05:13:29;;;;;;;9.85;3.92;;;18.20;99.90;;;;;;5012662;28;20227;-86
2022/05/12 05:15:58;;;;;;;4.20;3.90;;;18.10;99.90;;;;;;5013654;28;20218;-86
2022/05/12 05:18:27;;;;;;;4.53;4.13;;;18.10;99.90;;;;;;5016954;28;20242;-85
2022/05/12 05:20:55;;;;;;;9.60;5.43;;;18.10;99.90;;;;;;5016507;28;20274;-86
2022/05/12 05:23:24;;;;;;;4.63;4.22;;;18.10;99.90;;;;;;5016571;28;20269;-86
2022/05/12 05:25:53;;;;;;;4.80;4.32;;;18.10;99.90;;;;;;5016589;28;20239;-86
2022/05/12 05:28:22;;;;;;;5.13;3.97;;;18.10;99.90;;;;;;5016867;28;20318;-86
2022/05/12 05:30:52;;;;;;;4.88;4.07;;;18.10;99.90;;;;;;5016776;28;20235;-86
2022/05/12 05:33:20;;;;;;;4.95;4.55;;;18.20;99.90;;;;;;5016586;28;20277;-86
2022/05/12 05:35:49;;;;;;;4.18;3.78;;;18.30;99.90;;;;;;5016689;28;20204;-86
2022/05/12 05:38:18;;;;;;;10.35;4.75;;;18.30;99.90;;;;;;5016589;28;20211;-85
2022/05/12 05:40:46;;;;;;;4.95;4.25;;;18.30;99.90;;;;;;5016410;28;20265;-86
2022/05/12 05:43:15;;;;;;;6.50;5.13;;;18.40;99.90;;;;;;5016194;28;20237;-86
2022/05/12 05:45:44;;;;;;;4.28;3.88;;;18.50;99.90;;;;;;5016406;28;20226;-86
2022/05/12 05:48:15;;;;;;;5.85;4.53;;;18.60;99.90;;;;;;5016365;28;20209;-86
2022/05/12 05:53:35;;;;;;;5.78;4.05;;;18.90;99.90;;;;;;5016055;28;20318;-86
2022/05/12 05:56:06;;;;;;;4.10;3.70;;;19.00;99.90;;;;;;5015898;28;20211;-86
2022/05/12 05:58:35;;;;;;;3.75;3.45;;;19.20;99.90;;;;;;5016054;28;20223;-86
2022/05/12 06:01:04;;;;;;;5.15;3.95;;;19.40;99.90;;;;;;5015990;28;20265;-86
2022/05/12 06:03:33;;;;;;;4.40;2.67;;;19.70;99.90;;;;;;5016127;28;20235;-86
2022/05/12 06:06:02;;;;;;;3.40;3.15;;;20.00;99.90;;;;;;5015395;28;20314;-86
2022/05/12 06:08:31;;;;;;;2.78;2.55;;;20.30;99.90;;;;;;5015976;28;20242;-86
2022/05/12 06:11:04;;;;;;;3.40;3.10;;;20.60;99.90;;;;;;5015542;28;20203;-86
2022/05/12 06:13:34;;;;;;;2.97;2.78;;;21.10;99.90;;;;;;5015347;28;20223;-85
2022/05/12 06:16:04;;;;;;;3.17;2.88;;;21.40;99.90;;;;;;5016007;28;20211;-86
2022/05/12 06:18:37;;;;;;;2.65;2.45;;;21.60;99.90;;;;;;5016006;28;20319;-86
2022/05/12 06:21:06;;;;;;;2.53;2.33;;;21.90;99.90;;;;;;5015491;28;20203;-86
2022/05/12 06:23:35;;;;;;;2.95;2.75;;;22.10;99.90;;;;;;5015379;28;20255;-86
2022/05/12 06:26:06;;;;;;;3.30;3.00;;;22.30;99.90;;;;;;5015369;28;20294;-86
2022/05/12 06:28:34;;;;;;;3.50;3.00;;;22.40;99.90;;;;;;5015192;28;20218;-86
2022/05/12 06:31:03;;;;;;;3.03;2.65;;;22.60;99.90;;;;;;5015389;28;20285;-85
2022/05/12 06:33:33;;;;;;;3.97;2.83;;;22.70;99.90;;;;;;5015400;28;20222;-86
2022/05/12 06:36:05;;;;;;;6.07;3.38;;;22.90;99.90;;;;;;5015377;28;20207;-86
2022/05/12 06:38:34;;;;;;;3.85;2.83;;;23.10;99.90;;;;;;5015192;28;20207;-86
2022/05/12 06:41:04;;;;;;;2.80;2.60;;;23.20;99.90;;;;;;5015274;28;20227;-86
2022/05/12 06:43:32;;;;;;;2.55;2.20;;;23.30;99.90;;;;;;5015556;28;20254;-86
2022/05/12 06:46:01;;;;;;;4.03;3.08;;;23.50;99.90;;;;;;5012647;28;20279;-86
2022/05/12 06:48:29;;;;;;;3.55;2.95;;;23.60;99.90;;;;;;5013315;28;20211;-86
2022/05/12 06:50:58;;;;;;;4.13;2.95;;;23.70;99.90;;;;;;5012909;28;20243;-86
2022/05/12 06:53:28;;;;;;;3.47;2.92;;;23.90;99.90;;;;;;5012881;28;20285;-85
2022/05/12 06:55:57;;;;;;;3.13;2.70;;;24.10;99.90;;;;;;5012730;28;20223;-86
2022/05/12 06:58:26;;;;;;;4.10;3.58;;;24.30;99.60;;;;;;5013205;28;20311;-86
2022/05/12 07:00:54;;;;;;;2.55;2.45;;;24.40;99.20;;;;;;5013097;28;20215;-86
2022/05/12 07:03:22;;;;;;;3.92;3.35;;;24.60;98.50;;;;;;5012889;28;20231;-86
2022/05/12 07:05:51;;;;;;;7.38;2.75;;;24.80;97.90;;;;;;5012392;28;20286;-86
2022/05/12 07:08:20;;;;;;;4.32;2.30;;;24.90;97.20;;;;;;5012345;28;20234;-86
2022/05/12 07:10:50;;;;;;;2.67;2.47;;;25.10;96.30;;;;;;5012292;28;20215;-86
2022/05/12 07:13:20;;;;;;;2.47;2.15;;;25.30;94.50;;;;;;5012181;28;20283;-86
2022/05/12 07:15:50;;;;;;;2.80;2.50;;;25.50;94.10;;;;;;5012305;28;20203;-86
2022/05/12 07:18:20;;;;;;;4.15;2.92;;;25.70;93.50;;;;;;5012352;28;20305;-86
2022/05/12 07:26:41;;;;;;;19.60;2.97;;;26.80;90.60;;;;;;5012143;28;20230;-86
2022/05/12 07:29:12;;;;;;;2.60;2.42;;;27.50;87.50;;;;;;5012014;28;20235;-86
2022/05/12 07:31:41;;;;;;;3.97;2.50;;;28.00;84.70;;;;;;5011852;28;20247;-86
2022/05/12 07:34:10;;;;;;;2.92;2.45;;;28.60;82.90;;;;;;5011874;28;20230;-86
2022/05/12 07:36:42;;;;;;;4.10;2.67;;;29.20;78.90;;;;;;5012180;28;20318;-86
2022/05/12 07:39:16;;;;;;;3.28;2.67;;;29.90;76.00;;;;;;5011530;28;20214;-86
2022/05/12 07:41:46;;;;;;;5.82;2.55;;;30.00;73.30;;;;;;5011453;28;20215;-86
2022/05/12 07:44:17;;;;;;;13.40;2.63;;;30.20;71.20;;;;;;5011807;28;20246;-86
2022/05/12 07:46:46;;;;;;;6.03;2.63;;;30.60;69.60;;;;;;5011893;28;20219;-86
2022/05/12 07:49:15;;;;;;;2.42;2.22;;;31.10;67.50;;;;;;5011950;28;20296;-86
2022/05/12 07:51:50;;;;;;;2.85;2.65;;;31.70;67.00;;;;;;5011523;28;20223;-86
2022/05/12 07:54:18;;;;;;;4.55;2.47;;;32.00;65.20;;;;;;5011463;28;20215;-86
2022/05/12 07:56:48;;;;;;;2.63;2.42;;;32.20;61.30;;;;;;5011493;28;20249;-86
2022/05/12 07:59:16;;;;;;;3.10;2.17;;;32.30;60.70;;;;;;5011418;28;20261;-86
2022/05/12 08:01:45;;;;;;;2.10;2.00;;;32.70;59.20;;;;;;5011262;28;20214;-86
2022/05/12 08:04:14;;;;;;;3.00;2.70;;;33.20;58.10;;;;;;5011705;28;20277;-86
2022/05/12 08:06:44;;;;;;;4.45;2.42;;;32.70;56.90;;;;;;5011713;28;20261;-86
2022/05/12 08:09:13;;;;;;;2.85;2.15;;;32.30;56.60;;;;;;5013416;28;20264;-87
2022/05/12 08:11:42;;;;;;;2.58;2.38;;;32.40;57.10;;;;;;5013677;28;20199;-86
2022/05/12 08:14:12;;;;;;;2.42;2.22;;;32.10;56.60;;;;;;5013508;28;20317;-87
2022/05/12 08:16:41;;;;;;;3.63;2.30;;;32.30;56.90;;;;;;5013727;28;20252;-86
2022/05/12 08:19:10;;;;;;;4.55;2.67;;;32.30;56.50;;;;;;5013854;28;20253;-86
2022/05/12 08:21:39;;;;;;;2.10;1.90;;;32.40;55.70;;;;;;5013033;28;20211;-86
2022/05/12 08:24:07;;;;;;;4.80;2.72;;;31.70;55.70;;;;;;5013042;28;20329;-86
2022/05/12 08:26:36;;;;;;;2.30;2.10;;;31.90;56.80;;;;;;5013340;28;20229;-86
2022/05/12 08:29:04;;;;;;;3.58;2.53;;;31.80;56.30;;;;;;5013049;28;20291;-86
2022/05/12 08:31:34;;;;;;;2.10;1.98;;;31.90;56.50;;;;;;5013087;28;20202;-87
2022/05/12 08:34:03;;;;;;;5.10;2.42;;;32.90;56.10;;;;;;5013152;28;20233;-86
2022/05/12 08:36:31;;;;;;;2.97;2.72;;;33.40;55.80;;;;;;5013256;28;20226;-86
2022/05/12 08:39:00;;;;;;;2.15;2.05;;;33.00;55.50;;;;;;5013388;28;20222;-86
2022/05/12 08:41:34;;;;;;;3.65;2.85;;;32.60;55.30;;;;;;5012910;28;20206;-86
2022/05/12 08:44:08;;;;;;;3.88;2.17;;;32.10;55.50;;;;;;5013070;28;20284;-86
2022/05/12 08:46:45;;;;;;;4.97;2.58;;;31.60;56.40;;;;;;5013127;28;20210;-87
2022/05/12 08:49:24;;;;;;;2.42;2.22;;;31.00;57.40;;;;;;5012660;28;20231;-86
2022/05/12 08:51:56;;;;;;;4.18;2.45;;;30.80;56.60;;;;;;5012475;28;20226;-87
2022/05/12 08:54:27;;;;;;;3.83;2.53;;;30.60;57.10;;;;;;5012653;28;20379;-86
2022/05/12 08:57:02;;;;;;;2.80;2.60;;;30.50;57.90;;;;;;5013065;28;20238;-86
2022/05/12 08:59:32;;;;;;;2.30;2.10;;;30.40;57.20;;;;;;5013498;28;20285;-87
2022/05/12 09:02:17;;;;;;;2.67;2.45;;;30.40;58.50;;;;;;5012686;28;20210;-87
2022/05/12 09:05:07;;;;;;;2.85;2.65;;;30.00;57.70;;;;;;5012733;28;20206;-86
2022/05/12 09:07:42;;;;;;;4.32;2.47;;;29.60;58.30;;;;;;5012894;28;20234;-86
2022/05/12 09:10:18;;;;;;;2.72;2.20;;;29.90;58.20;;;;;;5012974;28;20280;-87
2022/05/12 09:12:52;;;;;;;3.28;2.47;;;29.70;58.80;;;;;;5013016;28;20227;-86
2022/05/12 09:15:24;;;;;;;4.13;2.47;;;30.50;58.40;;;;;;5012821;28;20286;-87
2022/05/12 09:17:59;;;;;;;4.22;3.00;;;31.20;57.00;;;;;;5012866;28;20198;-87
2022/05/12 09:20:30;;;;;;;3.17;2.20;;;31.80;56.00;;;;;;5012465;28;20260;-87
2022/05/12 09:23:00;;;;;;;4.72;2.65;;;31.50;55.10;;;;;;5012298;28;20265;-87
2022/05/12 09:25:31;;;;;;;2.35;2.22;;;30.70;56.60;;;;;;5013215;28;20215;-87
2022/05/12 09:28:16;;;;;;;3.35;2.60;;;29.90;57.20;;;;;;5012647;28;20269;-86
2022/05/12 09:30:45;;;;;;;2.85;2.65;;;30.00;58.60;;;;;;5010089;28;20226;-86
2022/05/12 09:33:28;;;;;;;3.83;2.47;;;30.20;57.60;;;;;;5012516;28;20254;-86
2022/05/12 09:35:59;;;;;;;5.10;2.45;;;30.40;56.50;;;;;;5012635;28;20301;-87
2022/05/12 09:38:29;;;;;;;2.33;2.13;;;30.50;56.50;;;;;;5012655;28;20196;-86
2022/05/12 09:40:58;;;;;;;3.10;2.67;;;29.80;57.30;;;;;;5012680;28;20210;-86
2022/05/12 09:43:31;;;;;;;2.25;2.13;;;29.60;57.60;;;;;;5012158;28;20251;-87
2022/05/12 09:46:03;;;;;;;2.80;2.50;;;29.30;58.10;;;;;;5012637;28;20207;-87
2022/05/12 09:48:34;;;;;;;2.97;2.67;;;28.70;59.10;;;;;;5012446;28;20289;-86
2022/05/12 09:51:21;;;;;;;2.88;2.60;;;29.10;59.10;;;;;;5012508;28;20215;-86
2022/05/12 09:53:51;;;;;;;3.08;2.78;;;29.50;58.10;;;;;;5001277;28;20228;-85
2022/05/12 09:56:31;;;;;;;5.38;2.83;;;29.90;57.40;;;;;;5012538;28;20207;-86
2022/05/12 09:59:07;;;;;;;3.97;2.45;;;30.50;56.70;;;;;;5012079;28;20227;-85
2022/05/12 10:01:51;;;;;;;3.13;2.22;;;31.20;56.50;;;;;;5012516;28;20214;-86
2022/05/12 10:10:11;;;;;;;2.10;1.90;;;31.40;53.60;;;;;;5016254;28;20298;-86
2022/05/12 10:12:52;;;;;;;3.38;2.70;;;31.10;53.60;;;;;;5015858;28;20231;-86
2022/05/12 10:15:27;;;;;;;2.50;2.30;;;31.20;53.50;;;;;;5015740;28;20211;-86
2022/05/12 10:17:59;;;;;;;3.88;2.55;;;31.10;53.60;;;;;;5015910;28;20211;-87
2022/05/12 10:20:32;;;;;;;4.43;2.55;;;30.20;55.50;;;;;;5015636;28;20290;-86
2022/05/12 10:23:08;;;;;;;3.67;2.70;;;29.90;56.00;;;;;;5015476;28;20291;-86
2022/05/12 10:25:59;;;;;;;2.83;2.63;;;29.70;56.50;;;;;;5015569;28;20273;-85
2022/05/12 10:28:44;;;;;;;2.63;2.42;;;29.10;56.80;;;;;;5015330;28;20242;-86
2022/05/12 10:31:29;;;;;;;6.03;2.72;;;28.70;57.10;;;;;;5015286;28;20266;-86
2022/05/12 10:34:18;;;;;;;2.90;2.70;;;28.70;57.70;;;;;;5015429;28;20257;-85
2022/05/12 10:36:58;;;;;;;4.65;2.53;;;28.40;58.60;;;;;;5015614;28;20272;-86
2022/05/12 10:39:31;;;;;;;2.92;2.67;;;28.20;59.10;;;;;;5015760;28;20292;-85
2022/05/12 10:42:13;;;;;;;3.00;2.70;;;28.00;60.20;;;;;;5015195;28;20299;-85
2022/05/12 10:45:10;;;;;;;2.80;2.60;;;27.80;60.90;;;;;;5015514;28;20211;-86
2022/05/12 10:48:10;;;;;;;7.47;2.83;;;27.70;60.80;;;;;;5015228;28;20207;-86
2022/05/12 10:50:47;;;;;;;4.30;3.33;;;27.50;61.40;;;;;;5010301;28;20222;-87
2022/05/12 10:53:29;;;;;;;3.33;2.70;;;27.70;62.00;;;;;;5014910;28;20234;-86
2022/05/12 10:56:08;;;;;;;5.47;2.45;;;28.10;60.80;;;;;;5015119;28;20234;-86
2022/05/12 10:58:42;;;;;;;2.83;2.50;;;28.20;60.00;;;;;;5014966;28;20226;-87
2022/05/12 11:01:17;;;;;;;3.47;2.53;;;28.50;60.30;;;;;;5014634;28;20246;-86
2022/05/12 11:03:53;;;;;;;2.72;2.35;;;28.50;60.00;;;;;;5015000;28;20237;-86
2022/05/12 11:06:26;;;;;;;3.42;2.40;;;28.60;60.00;;;;;;5014802;28;20207;-86
2022/05/12 11:09:02;;;;;;;4.30;2.75;;;28.50;60.20;;;;;;5014377;28;20223;-87
2022/05/12 11:11:37;;;;;;;3.60;2.63;;;28.50;61.10;;;;;;5014225;28;20241;-86
2022/05/12 11:14:16;;;;;;;3.78;2.85;;;28.80;60.20;;;;;;5014464;28;20254;-87
2022/05/12 11:16:54;;;;;;;2.83;2.53;;;29.20;60.20;;;;;;5014530;28;20303;-87
2022/05/12 11:19:31;;;;;;;2.50;2.30;;;29.50;59.60;;;;;;5013919;28;20199;-87
2022/05/12 11:22:12;;;;;;;3.40;3.10;;;29.80;59.00;;;;;;5013725;28;20207;-87
2022/05/12 11:24:49;;;;;;;3.70;3.40;;;29.90;59.00;;;;;;5014274;28;20230;-87
2022/05/12 11:27:31;;;;;;;3.75;2.88;;;30.30;58.70;;;;;;5014484;28;20207;-87
2022/05/12 11:30:25;;;;;;;3.22;2.92;;;30.50;58.40;;;;;;5013966;28;20277;-88
2022/05/12 11:33:02;;;;;;;3.13;2.92;;;31.00;57.70;;;;;;5014444;28;20227;-87
2022/05/12 11:35:35;;;;;;;3.75;2.60;;;31.10;57.70;;;;;;5013988;28;20246;-87
2022/05/12 11:38:05;;;;;;;3.25;2.80;;;31.20;57.20;;;;;;5013972;28;20207;-87
2022/05/12 11:40:53;;;;;;;8.90;2.78;;;31.20;57.00;;;;;;5013744;28;20203;-87
2022/05/12 11:46:51;;;;;;;2.70;2.45;;;31.20;57.30;;;;;;5013840;28;20237;-87
2022/05/12 11:49:45;;;;;;;2.63;2.42;;;30.70;57.70;;;;;;5014423;28;20220;-87
2022/05/12 11:52:26;;;;;;;3.15;2.60;;;30.80;57.90;;;;;;5013501;28;20306;-88
2022/05/12 11:54:58;;;;;;;4.18;2.70;;;31.10;57.60;;;;;;5013551;28;20213;-88
2022/05/12 11:57:32;;;;;;;2.45;2.25;;;31.20;57.20;;;;;;5014229;28;20191;-88
2022/05/12 12:00:02;;;;;;;4.28;3.22;;;31.40;57.20;;;;;;5013990;28;20199;-87
2022/05/12 12:02:40;;;;;;;3.17;2.58;;;31.40;57.30;;;;;;5013437;28;20230;-87
2022/05/12 12:05:10;;;;;;;2.50;2.30;;;31.80;57.80;;;;;;5013551;28;20241;-87
2022/05/12 12:07:59;;;;;;;3.80;2.85;;;32.30;56.10;;;;;;5013566;28;20242;-88
2022/05/12 12:10:37;;;;;;;2.70;2.50;;;32.30;55.60;;;;;;5013023;28;20219;-87
2022/05/12 12:13:35;;;;;;;2.80;2.58;;;31.80;55.90;;;;;;5013579;28;20326;-87
2022/05/12 12:16:09;;;;;;;8.18;3.05;;;31.60;56.90;;;;;;5013878;28;20207;-87
2022/05/12 12:18:57;;;;;;;3.15;2.70;;;31.80;56.70;;;;;;5013572;28;20269;-87
2022/05/12 12:21:41;;;;;;;3.30;2.70;;;31.20;56.40;;;;;;5013080;28;20209;-87
2022/05/12 12:24:36;;;;;;;4.72;3.35;;;30.80;57.70;;;;;;5012964;28;20317;-87
2022/05/12 12:27:35;;;;;;;3.50;3.05;;;31.20;58.60;;;;;;5011445;28;20294;-87
2022/05/12 12:30:28;;;;;;;3.05;2.75;;;31.00;57.50;;;;;;4983514;28;20417;-87
2022/05/12 12:33:37;;;;;;;3.08;2.78;;;31.40;57.60;;;;;;5013059;28;20258;-88
2022/05/12 12:36:08;;;;;;;3.67;3.00;;;31.70;56.80;;;;;;4983792;28;20306;-87
2022/05/12 12:38:58;;;;;;;3.33;3.03;;;31.70;56.70;;;;;;5012909;28;20203;-87
2022/05/12 12:41:42;;;;;;;3.63;2.72;;;31.60;57.00;;;;;;5013270;28;20234;-88
2022/05/12 12:44:17;;;;;;;3.20;2.90;;;31.30;56.90;;;;;;5013041;28;20293;-87
2022/05/12 12:46:58;;;;;;;3.47;3.10;;;31.00;58.00;;;;;;5013352;28;20241;-87
2022/05/12 12:49:32;;;;;;;2.72;2.50;;;31.00;57.40;;;;;;5012845;28;20253;-87
2022/05/12 12:52:15;;;;;;;3.78;3.13;;;30.80;57.40;;;;;;5012664;28;20206;-87
2022/05/12 12:57:41;;;;;;;3.78;2.92;;;31.10;57.60;;;;;;5013067;28;20269;-88
2022/05/12 13:00:14;;;;;;;2.72;2.33;;;31.30;57.90;;;;;;5012677;28;20199;-88
2022/05/12 13:02:46;;;;;;;4.30;2.63;;;31.10;57.40;;;;;;5012634;28;20223;-88
2022/05/12 13:05:22;;;;;;;6.22;2.83;;;31.00;57.40;;;;;;5012414;28;20215;-88
2022/05/12 13:07:56;;;;;;;3.08;2.80;;;30.40;57.90;;;;;;5012825;28;20210;-88
2022/05/12 13:10:24;;;;;;;3.05;2.70;;;29.90;59.00;;;;;;5013028;28;20246;-87
2022/05/12 13:12:58;;;;;;;3.40;3.10;;;29.70;59.00;;;;;;5012626;28;20247;-87
2022/05/12 13:15:27;;;;;;;3.05;2.40;;;29.70;59.30;;;;;;5012124;28;20230;-88
2022/05/12 13:18:01;;;;;;;3.35;2.90;;;29.80;59.30;;;;;;5011804;28;20203;-88
2022/05/12 13:20:52;;;;;;;4.25;3.13;;;29.90;59.60;;;;;;5012252;28;20211;-87
2022/05/12 13:23:24;;;;;;;5.30;3.13;;;30.00;59.30;;;;;;5012686;28;20231;-87
2022/05/12 13:25:54;;;;;;;3.85;3.28;;;29.90;59.40;;;;;;5012442;28;20203;-88
2022/05/12 13:28:25;;;;;;;5.95;3.40;;;29.90;59.60;;;;;;5012851;28;20237;-88
2022/05/12 13:31:13;;;;;;;2.83;2.63;;;30.00;59.60;;;;;;5012092;28;20285;-88
2022/05/12 13:34:01;;;;;;;2.85;2.55;;;30.30;60.00;;;;;;5012340;28;20223;-88
2022/05/12 13:36:33;;;;;;;6.70;2.88;;;30.80;59.50;;;;;;5012799;28;20291;-88